createdAt,value
2023-02-27T00:02:13.550Z,17.70
2023-02-27T00:04:44.371Z,17.70
2023-02-27T00:07:15.309Z,17.70
2023-02-27T00:09:46.103Z,18.20
2023-02-27T00:12:19.492Z,17.70
2023-02-27T00:14:51.453Z,17.70
2023-02-27T00:17:25.849Z,17.70
2023-02-27T00:19:58.686Z,17.80
2023-02-27T00:22:29.956Z,17.60
2023-02-27T00:25:00.743Z,18.00
2023-02-27T00:27:34.641Z,17.60
2023-02-27T00:30:05.505Z,17.60
2023-02-27T00:32:37.033Z,18.20
2023-02-27T00:35:08.998Z,17.50
2023-02-27T00:37:40.265Z,18.20
2023-02-27T00:40:12.768Z,19.80
2023-02-27T00:42:49.568Z,19.10
2023-02-27T00:45:21.443Z,19.20
2023-02-27T00:47:52.269Z,19.70
2023-02-27T00:50:23.245Z,19.90
2023-02-27T00:52:54.172Z,21.20
2023-02-27T00:55:27.182Z,19.80
2023-02-27T00:58:03.881Z,20.20
2023-02-27T01:00:34.772Z,21.20
2023-02-27T01:03:05.683Z,21.10
2023-02-27T01:05:36.471Z,20.40
2023-02-27T01:08:08.324Z,20.20
2023-02-27T01:10:40.521Z,21.10
2023-02-27T01:13:14.101Z,20.70
2023-02-27T01:15:44.918Z,20.40
2023-02-27T01:18:16.144Z,20.90
2023-02-27T01:20:47.030Z,21.20
2023-02-27T01:23:18.072Z,20.90
2023-02-27T01:25:50.309Z,22.40
2023-02-27T01:28:23.847Z,21.80
2023-02-27T01:30:55.061Z,22.40
2023-02-27T01:33:25.890Z,21.70
2023-02-27T01:35:56.867Z,22.20
2023-02-27T01:38:27.761Z,22.60
2023-02-27T01:41:00.646Z,22.10
2023-02-27T01:43:34.098Z,21.90
2023-02-27T01:46:04.915Z,22.30
2023-02-27T01:48:39.449Z,22.40
2023-02-27T01:51:31.767Z,22.50
2023-02-27T01:54:03.500Z,22.20
2023-02-27T01:56:35.592Z,22.10
2023-02-27T01:59:12.032Z,23.10
2023-02-27T02:01:43.348Z,23.60
2023-02-27T02:04:20.427Z,23.20
2023-02-27T02:06:56.768Z,23.40
2023-02-27T02:09:29.204Z,23.90
2023-02-27T02:12:01.370Z,24.00
2023-02-27T02:14:34.995Z,23.70
2023-02-27T02:17:16.284Z,24.10
2023-02-27T02:20:27.374Z,24.00
2023-02-27T02:23:32.856Z,23.70
2023-02-27T02:26:34.386Z,24.50
2023-02-27T02:29:48.906Z,25.40
2023-02-27T02:32:50.626Z,24.00
2023-02-27T02:36:03.604Z,24.40
2023-02-27T02:38:50.344Z,24.30
2023-02-27T02:41:30.489Z,24.30
2023-02-27T02:44:07.828Z,24.80
2023-02-27T02:46:48.566Z,23.70
2023-02-27T02:49:28.495Z,23.90
2023-02-27T02:55:15.127Z,24.00
2023-02-27T02:57:51.290Z,23.40
2023-02-27T03:00:25.133Z,23.40
2023-02-27T03:02:59.664Z,23.70
2023-02-27T03:05:35.592Z,25.60
2023-02-27T03:08:11.554Z,25.30
2023-02-27T03:10:49.356Z,25.50
2023-02-27T03:13:25.423Z,26.40
2023-02-27T03:16:01.571Z,26.70
2023-02-27T03:18:37.645Z,26.50
2023-02-27T03:21:14.966Z,26.10
2023-02-27T03:23:47.993Z,25.60
2023-02-27T03:26:27.722Z,25.60
2023-02-27T03:29:06.757Z,25.50
2023-02-27T03:31:43.839Z,25.60
2023-02-27T03:34:20.194Z,25.70
2023-02-27T03:36:57.703Z,25.40
2023-02-27T03:39:37.880Z,25.50
2023-02-27T03:42:20.351Z,25.40
2023-02-27T03:44:58.830Z,26.10
2023-02-27T03:47:30.556Z,26.70
2023-02-27T03:50:01.582Z,25.50
2023-02-27T03:52:33.819Z,25.60
2023-02-27T03:55:21.103Z,26.60
2023-02-27T03:57:59.129Z,25.40
2023-02-27T04:00:38.633Z,25.30
2023-02-27T04:06:29.010Z,26.40
2023-02-27T04:09:07.445Z,25.50
2023-02-27T04:11:47.107Z,26.40
2023-02-27T04:14:36.108Z,26.70
2023-02-27T04:17:23.286Z,26.60
2023-02-27T04:20:13.504Z,27.50
2023-02-27T04:22:52.006Z,28.00
2023-02-27T04:25:47.463Z,27.50
2023-02-27T04:28:23.981Z,27.50
2023-02-27T04:31:08.560Z,27.10
2023-02-27T04:33:48.057Z,28.50
2023-02-27T04:36:25.999Z,27.50
2023-02-27T04:39:02.895Z,29.60
2023-02-27T04:41:38.734Z,29.10
2023-02-27T04:47:06.391Z,28.80
2023-02-27T04:49:41.017Z,28.20
2023-02-27T04:52:19.417Z,30.20
2023-02-27T04:54:55.690Z,29.40
2023-02-27T04:57:32.100Z,29.40
2023-02-27T05:00:09.301Z,29.20
2023-02-27T05:05:50.845Z,29.10
2023-02-27T05:08:27.226Z,28.80
2023-02-27T05:11:05.605Z,29.70
2023-02-27T05:13:43.011Z,28.90
2023-02-27T05:16:22.505Z,30.10
2023-02-27T05:18:56.639Z,31.40
2023-02-27T05:21:33.975Z,29.70
2023-02-27T05:24:34.112Z,29.80
2023-02-27T05:27:19.179Z,31.80
2023-02-27T05:29:53.018Z,30.40
2023-02-27T05:32:37.640Z,29.30
2023-02-27T05:35:17.014Z,29.70
2023-02-27T05:37:52.686Z,30.20
2023-02-27T05:40:26.973Z,30.10
2023-02-27T05:43:03.901Z,29.70
2023-02-27T05:45:50.937Z,30.10
2023-02-27T05:48:27.615Z,31.10
2023-02-27T05:54:03.172Z,31.30
2023-02-27T05:56:36.581Z,31.20
2023-02-27T05:59:14.504Z,31.10
2023-02-27T06:01:46.455Z,31.50
2023-02-27T06:04:17.513Z,33.20
2023-02-27T06:06:59.153Z,32.70
2023-02-27T06:09:30.283Z,32.30
2023-02-27T06:12:02.685Z,31.80
2023-02-27T06:14:36.585Z,31.90
2023-02-27T06:17:07.625Z,33.50
2023-02-27T06:19:38.373Z,33.60
2023-02-27T06:22:12.286Z,32.10
2023-02-27T06:24:43.222Z,32.60
2023-02-27T06:27:14.016Z,33.40
2023-02-27T06:30:07.410Z,33.70
2023-02-27T06:32:38.478Z,32.20
2023-02-27T06:35:13.830Z,32.00
2023-02-27T06:37:47.390Z,31.80
2023-02-27T06:40:19.177Z,36.50
2023-02-27T06:42:50.046Z,34.50
2023-02-27T06:45:21.402Z,33.70
2023-02-27T06:47:55.107Z,34.80
2023-02-27T06:50:25.833Z,34.20
2023-02-27T06:52:59.141Z,36.90
2023-02-27T06:55:30.164Z,36.00
2023-02-27T06:58:00.929Z,35.10
2023-02-27T07:00:32.087Z,36.10
2023-02-27T07:03:05.057Z,37.10
2023-02-27T07:05:38.389Z,37.40
2023-02-27T07:08:12.373Z,37.30
2023-02-27T07:10:51.960Z,36.90
2023-02-27T07:13:23.282Z,39.40
2023-02-27T07:15:58.042Z,42.00
2023-02-27T07:18:29.035Z,40.00
2023-02-27T07:20:59.903Z,38.50
2023-02-27T07:23:33.228Z,39.60
2023-02-27T07:26:03.985Z,42.50
2023-02-27T07:28:34.858Z,48.40
2023-02-27T07:31:05.783Z,49.40
2023-02-27T07:33:36.596Z,47.60
2023-02-27T07:36:07.904Z,47.80
2023-02-27T07:38:41.249Z,48.40
2023-02-27T07:41:28.221Z,49.90
2023-02-27T07:44:00.565Z,48.10
2023-02-27T07:46:34.226Z,49.00
2023-02-27T07:49:05.187Z,48.50
2023-02-27T07:51:36.170Z,48.40
2023-02-27T07:54:09.676Z,46.20
2023-02-27T07:56:40.505Z,46.00
2023-02-27T07:59:15.782Z,44.50
2023-02-27T08:01:46.675Z,43.50
2023-02-27T08:04:17.405Z,41.80
2023-02-27T08:06:48.396Z,41.00
2023-02-27T08:09:21.954Z,40.20
2023-02-27T08:11:52.801Z,39.30
2023-02-27T08:14:23.591Z,40.30
2023-02-27T08:17:01.387Z,38.50
2023-02-27T08:19:32.117Z,35.30
2023-02-27T08:22:03.673Z,35.60
2023-02-27T08:24:37.003Z,35.00
2023-02-27T08:27:07.766Z,35.70
2023-02-27T08:29:38.869Z,31.20
2023-02-27T08:32:09.850Z,32.30
2023-02-27T08:34:40.921Z,32.60
2023-02-27T08:37:11.851Z,30.00
2023-02-27T08:39:45.311Z,28.30
2023-02-27T08:42:19.259Z,30.20
2023-02-27T08:44:50.519Z,28.30
2023-02-27T08:47:21.481Z,27.80
2023-02-27T08:49:52.283Z,28.30
2023-02-27T08:52:24.944Z,27.00
2023-02-27T08:54:58.539Z,27.10
2023-02-27T08:57:29.377Z,26.30
2023-02-27T09:00:00.253Z,25.80
2023-02-27T09:02:31.194Z,25.00
2023-02-27T09:05:02.163Z,25.60
2023-02-27T09:07:34.540Z,23.70
2023-02-27T09:10:12.306Z,25.10
2023-02-27T09:12:43.162Z,23.70
2023-02-27T09:15:15.375Z,22.60
2023-02-27T09:17:46.200Z,19.60
2023-02-27T09:20:17.236Z,19.20
2023-02-27T09:22:48.103Z,20.30
2023-02-27T09:25:21.569Z,19.90
2023-02-27T09:27:52.478Z,19.40
2023-02-27T09:30:23.481Z,19.60
2023-02-27T09:32:54.441Z,16.90
2023-02-27T09:35:25.611Z,19.60
2023-02-27T09:37:56.463Z,16.30
2023-02-27T09:40:32.225Z,15.90
2023-02-27T09:43:06.555Z,16.40
2023-02-27T09:45:39.389Z,14.20
2023-02-27T09:48:19.136Z,15.20
2023-02-27T09:50:52.672Z,13.70
2023-02-27T09:53:31.263Z,14.20
2023-02-27T09:56:10.084Z,14.30
2023-02-27T09:58:52.818Z,14.00
2023-02-27T10:01:26.489Z,13.60
2023-02-27T10:04:21.218Z,12.70
2023-02-27T10:06:54.937Z,12.10
2023-02-27T10:09:36.585Z,12.10
2023-02-27T10:12:22.360Z,13.20
2023-02-27T10:14:57.354Z,12.20
2023-02-27T10:17:42.504Z,10.50
2023-02-27T10:20:23.409Z,11.40
2023-02-27T10:22:57.025Z,9.70
2023-02-27T10:25:31.940Z,10.50
2023-02-27T10:28:17.426Z,10.00
2023-02-27T10:30:51.852Z,11.30
2023-02-27T10:33:30.094Z,7.60
2023-02-27T10:36:03.147Z,8.10
2023-02-27T10:38:37.476Z,7.50
2023-02-27T10:41:10.468Z,8.40
2023-02-27T10:43:46.702Z,7.20
2023-02-27T10:46:28.943Z,9.00
2023-02-27T10:49:05.512Z,7.10
2023-02-27T10:51:58.485Z,7.50
2023-02-27T10:54:29.419Z,7.00
2023-02-27T10:57:37.032Z,4.20
2023-02-27T11:00:33.640Z,7.10
2023-02-27T11:03:05.015Z,5.10
2023-02-27T11:05:48.019Z,3.20
2023-02-27T11:08:24.979Z,4.70
2023-02-27T11:10:59.102Z,3.40
2023-02-27T11:13:35.053Z,3.50
2023-02-27T11:16:22.313Z,1.50
2023-02-27T11:18:54.746Z,3.60
2023-02-27T11:21:29.142Z,1.50
2023-02-27T11:24:08.582Z,2.00
2023-02-27T11:26:41.942Z,2.60
2023-02-27T11:29:23.374Z,1.00
2023-02-27T11:32:00.433Z,2.80
2023-02-27T11:34:34.174Z,1.00
2023-02-27T11:37:08.225Z,1.10
2023-02-27T11:39:44.081Z,1.00
2023-02-27T11:42:19.990Z,1.00
2023-02-27T11:44:58.543Z,1.50
2023-02-27T11:47:44.294Z,1.00
2023-02-27T11:51:09.215Z,1.00
2023-02-27T11:54:20.075Z,1.00
2023-02-27T11:56:55.292Z,1.00
2023-02-27T12:02:58.906Z,1.00
2023-02-27T12:05:33.141Z,1.00
2023-02-27T12:08:08.282Z,1.00
2023-02-27T12:10:48.396Z,1.00
2023-02-27T12:13:24.386Z,1.00
2023-02-27T12:16:01.147Z,1.00
2023-02-27T12:18:42.443Z,1.00
2023-02-27T12:21:16.307Z,1.00
2023-02-27T12:23:55.809Z,1.00
2023-02-27T12:26:34.168Z,1.00
2023-02-27T12:29:15.494Z,1.00
2023-02-27T12:31:53.137Z,1.00
2023-02-27T12:34:33.606Z,1.00
2023-02-27T12:37:12.434Z,1.00
2023-02-27T12:39:48.175Z,1.00
2023-02-27T12:42:45.508Z,1.00
2023-02-27T12:46:04.788Z,1.00
2023-02-27T12:48:49.210Z,1.00
2023-02-27T12:51:34.326Z,1.00
2023-02-27T12:54:20.409Z,1.00
2023-02-27T12:57:04.299Z,1.00
2023-02-27T12:59:51.556Z,1.00
2023-02-27T13:02:36.201Z,1.00
2023-02-27T13:05:18.281Z,1.00
2023-02-27T13:07:57.749Z,1.00
2023-02-27T13:10:36.346Z,1.00
2023-02-27T13:13:15.940Z,1.00
2023-02-27T13:16:08.276Z,1.00
2023-02-27T13:18:47.288Z,1.00
2023-02-27T13:21:47.001Z,1.00
2023-02-27T13:24:35.963Z,1.00
2023-02-27T13:27:22.288Z,1.00
2023-02-27T13:30:08.524Z,1.00
2023-02-27T13:32:58.057Z,1.00
2023-02-27T13:35:36.257Z,1.00
2023-02-27T13:38:37.309Z,1.00
2023-02-27T13:41:56.668Z,1.00
2023-02-27T13:45:00.778Z,1.00
2023-02-27T13:47:52.422Z,1.00
2023-02-27T13:50:51.570Z,1.00
2023-02-27T13:53:25.971Z,1.00
2023-02-27T13:56:23.763Z,1.00
2023-02-27T13:58:57.573Z,1.00
2023-02-27T14:01:34.988Z,1.00
2023-02-27T14:04:09.297Z,1.00
2023-02-27T14:06:49.177Z,1.00
2023-02-27T14:09:23.796Z,1.00
2023-02-27T14:11:58.028Z,1.00
2023-02-27T14:14:47.847Z,1.00
2023-02-27T14:17:45.002Z,1.00
2023-02-27T14:20:37.636Z,1.00
2023-02-27T14:23:23.280Z,1.00
2023-02-27T14:25:57.038Z,1.00
2023-02-27T14:28:36.690Z,1.00
2023-02-27T14:31:09.982Z,1.00
2023-02-27T14:33:48.513Z,1.00
2023-02-27T14:36:23.624Z,1.00
2023-02-27T14:38:59.249Z,1.00
2023-02-27T14:41:41.357Z,1.00
2023-02-27T14:44:21.818Z,1.00
2023-02-27T14:46:53.956Z,1.00
2023-02-27T14:49:30.895Z,1.00
2023-02-27T14:52:27.631Z,1.00
2023-02-27T14:55:15.044Z,1.00
2023-02-27T14:58:01.826Z,1.00
2023-02-27T15:00:41.110Z,1.00
2023-02-27T15:03:24.171Z,1.00
2023-02-27T15:06:01.656Z,1.00
2023-02-27T15:08:38.196Z,1.00
2023-02-27T15:11:09.746Z,1.00
2023-02-27T15:13:42.428Z,1.00
2023-02-27T15:16:37.641Z,1.00
2023-02-27T15:19:19.915Z,1.00
2023-02-27T15:21:54.805Z,1.00
2023-02-27T15:27:40.781Z,1.00
2023-02-27T15:30:23.663Z,1.00
2023-02-27T15:32:55.883Z,1.00
2023-02-27T15:35:30.571Z,1.00
2023-02-27T15:38:04.428Z,1.00
2023-02-27T15:40:37.450Z,1.00
2023-02-27T15:43:09.122Z,1.00
2023-02-27T15:45:41.606Z,1.00
2023-02-27T15:48:15.460Z,1.00
2023-02-27T15:50:49.247Z,1.00
2023-02-27T15:53:27.659Z,1.00
2023-02-27T15:56:00.998Z,1.00
2023-02-27T15:58:34.308Z,1.00
2023-02-27T16:01:08.352Z,1.00
2023-02-27T16:03:41.470Z,1.00
2023-02-27T16:06:14.710Z,1.00
2023-02-27T16:08:50.855Z,1.00
2023-02-27T16:11:22.431Z,1.00
2023-02-27T16:13:54.326Z,1.00
2023-02-27T16:16:31.814Z,1.00
2023-02-27T16:19:05.404Z,1.00
2023-02-27T16:21:36.296Z,1.00
2023-02-27T16:24:33.615Z,1.00
2023-02-27T16:27:04.606Z,1.00
2023-02-27T16:29:46.317Z,1.00
2023-02-27T16:32:31.300Z,1.00
2023-02-27T16:35:08.251Z,1.00
2023-02-27T16:37:41.233Z,1.00
2023-02-27T16:40:19.009Z,1.00
2023-02-27T16:42:50.324Z,1.00
2023-02-27T16:45:24.248Z,1.00
2023-02-27T16:47:56.972Z,1.00
2023-02-27T16:50:31.654Z,1.00
2023-02-27T16:53:03.421Z,1.00
2023-02-27T16:55:58.167Z,1.00
2023-02-27T16:58:30.903Z,1.00
2023-02-27T17:01:03.949Z,1.00
2023-02-27T17:03:35.593Z,1.00
2023-02-27T17:06:09.709Z,1.00
2023-02-27T17:08:45.333Z,1.00
2023-02-27T17:11:29.290Z,1.00
2023-02-27T17:14:13.030Z,1.00
2023-02-27T17:17:05.395Z,1.00
2023-02-27T17:19:36.748Z,1.00
2023-02-27T17:22:10.720Z,1.00
2023-02-27T17:24:41.910Z,1.00
2023-02-27T17:27:15.422Z,1.00
2023-02-27T17:29:48.766Z,1.00
2023-02-27T17:32:22.247Z,1.00
2023-02-27T17:34:55.931Z,1.00
2023-02-27T17:37:27.191Z,1.00
2023-02-27T17:39:58.317Z,1.00
2023-02-27T17:42:29.184Z,1.00
2023-02-27T17:45:01.284Z,1.00
2023-02-27T17:47:35.142Z,1.00
2023-02-27T17:50:06.827Z,1.00
2023-02-27T17:52:41.451Z,1.00
2023-02-27T17:55:15.859Z,1.00
2023-02-27T17:57:49.369Z,1.00
2023-02-27T18:00:21.082Z,1.00
2023-02-27T18:02:54.898Z,1.00
2023-02-27T18:05:25.921Z,1.00
2023-02-27T18:07:56.740Z,1.00
2023-02-27T18:10:27.639Z,1.00
2023-02-27T18:12:58.774Z,1.00
2023-02-27T18:15:29.687Z,1.00
2023-02-27T18:18:03.081Z,1.00
2023-02-27T18:20:34.093Z,1.00
2023-02-27T18:23:05.012Z,1.20
2023-02-27T18:25:36.092Z,1.00
2023-02-27T18:28:07.395Z,1.50
2023-02-27T18:30:41.890Z,1.30
2023-02-27T18:33:15.503Z,1.40
2023-02-27T18:35:46.652Z,2.30
2023-02-27T18:38:17.657Z,2.20
2023-02-27T18:40:55.651Z,2.90
2023-02-27T18:43:27.109Z,2.20
2023-02-27T18:45:58.064Z,2.20
2023-02-27T18:48:31.728Z,2.20
2023-02-27T18:51:04.982Z,2.30
2023-02-27T18:53:37.507Z,2.30
2023-02-27T18:56:11.311Z,2.30
2023-02-27T18:58:42.437Z,2.30
2023-02-27T19:01:37.789Z,2.80
2023-02-27T19:04:14.499Z,2.40
2023-02-27T19:06:46.053Z,3.10
2023-02-27T19:09:20.412Z,2.60
2023-02-27T19:11:52.522Z,2.40
2023-02-27T19:14:41.141Z,2.50
2023-02-27T19:17:11.933Z,2.40
2023-02-27T19:19:47.607Z,1.80
2023-02-27T19:22:19.026Z,2.60
2023-02-27T19:24:49.802Z,2.50
2023-02-27T19:27:20.780Z,2.60
2023-02-27T19:29:51.793Z,2.60
2023-02-27T19:32:22.753Z,2.50
2023-02-27T19:34:58.360Z,2.30
2023-02-27T19:37:29.128Z,1.40
2023-02-27T19:40:00.086Z,2.40
2023-02-27T19:42:31.510Z,2.40
2023-02-27T19:45:02.606Z,2.50
2023-02-27T19:47:33.795Z,2.40
2023-02-27T19:50:08.359Z,2.40
2023-02-27T19:52:39.399Z,2.50
2023-02-27T19:55:11.491Z,2.30
2023-02-27T19:57:42.518Z,2.30
2023-02-27T20:00:15.751Z,2.70
2023-02-27T20:02:46.894Z,3.00
2023-02-27T20:05:21.013Z,2.80
2023-02-27T20:07:53.357Z,3.40
2023-02-27T20:10:24.324Z,3.80
2023-02-27T20:12:55.098Z,4.40
2023-02-27T20:15:26.158Z,3.70
2023-02-27T20:17:57.239Z,3.70
2023-02-27T20:20:32.056Z,3.70
2023-02-27T20:23:04.757Z,4.40
2023-02-27T20:25:35.708Z,3.70
2023-02-27T20:28:06.816Z,3.20
2023-02-27T20:30:37.643Z,4.20
2023-02-27T20:33:08.396Z,3.60
2023-02-27T20:35:43.263Z,4.50
2023-02-27T20:38:16.459Z,5.00
2023-02-27T20:40:47.220Z,4.20
2023-02-27T20:43:17.961Z,5.00
2023-02-27T20:45:48.830Z,6.10
2023-02-27T20:48:19.816Z,6.40
2023-02-27T20:50:53.195Z,6.50
2023-02-27T20:53:26.240Z,6.10
2023-02-27T20:55:57.099Z,6.60
2023-02-27T20:58:29.958Z,6.80
2023-02-27T21:01:04.151Z,7.40
2023-02-27T21:03:38.995Z,7.50
2023-02-27T21:06:14.890Z,7.40
2023-02-27T21:08:47.740Z,8.10
2023-02-27T21:11:20.644Z,8.50
2023-02-27T21:13:51.841Z,8.20
2023-02-27T21:16:22.960Z,8.20
2023-02-27T21:18:54.035Z,8.90
2023-02-27T21:21:30.661Z,9.20
2023-02-27T21:24:02.585Z,10.00
2023-02-27T21:26:35.561Z,9.20
2023-02-27T21:29:08.736Z,9.10
2023-02-27T21:31:43.837Z,10.20
2023-02-27T21:34:16.931Z,10.60
2023-02-27T21:36:54.271Z,10.20
2023-02-27T21:39:28.140Z,11.20
2023-02-27T21:41:59.494Z,10.20
2023-02-27T21:44:31.891Z,11.20
2023-02-27T21:47:10.193Z,11.20
2023-02-27T21:49:42.453Z,11.70
2023-02-27T21:52:16.146Z,12.20
2023-02-27T21:54:47.150Z,12.00
2023-02-27T21:57:18.071Z,12.00
2023-02-27T21:59:49.124Z,13.00
2023-02-27T22:02:27.194Z,12.90
2023-02-27T22:04:58.291Z,12.50
2023-02-27T22:07:32.050Z,13.10
2023-02-27T22:10:17.031Z,13.40
2023-02-27T22:12:50.870Z,13.70
2023-02-27T22:15:21.809Z,14.00
2023-02-27T22:17:54.684Z,13.90
2023-02-27T22:20:25.669Z,14.20
2023-02-27T22:22:59.543Z,14.70
2023-02-27T22:25:30.606Z,14.70
2023-02-27T22:28:02.284Z,15.20
2023-02-27T22:30:33.828Z,14.60
2023-02-27T22:33:07.912Z,15.00
2023-02-27T22:35:40.016Z,15.30
2023-02-27T22:38:13.519Z,15.00
2023-02-27T22:40:44.294Z,15.10
2023-02-27T22:43:16.670Z,15.40
2023-02-27T22:45:48.746Z,15.40
2023-02-27T22:48:19.501Z,15.50
2023-02-27T22:50:59.051Z,15.30
2023-02-27T22:53:33.137Z,15.50
2023-02-27T22:56:04.809Z,15.20
2023-02-27T22:58:37.912Z,14.70
2023-02-27T23:01:15.834Z,15.30
2023-02-27T23:03:48.222Z,15.30
2023-02-27T23:06:22.397Z,14.60
2023-02-27T23:08:56.080Z,15.10
2023-02-27T23:11:27.524Z,15.00
2023-02-27T23:13:58.994Z,14.60
2023-02-27T23:16:34.409Z,14.10
2023-02-27T23:19:06.060Z,14.30
2023-02-27T23:21:38.395Z,13.70
2023-02-27T23:24:22.142Z,13.80
2023-02-27T23:26:54.659Z,13.60
2023-02-27T23:29:28.514Z,14.10
2023-02-27T23:31:59.333Z,13.70
2023-02-27T23:34:40.530Z,13.10
2023-02-27T23:37:18.658Z,13.60
2023-02-27T23:39:52.396Z,13.20
2023-02-27T23:42:23.161Z,12.60
2023-02-27T23:44:53.849Z,13.00
2023-02-27T23:47:37.040Z,13.30
2023-02-27T23:50:12.421Z,13.90
2023-02-27T23:52:43.413Z,13.90
2023-02-27T23:55:16.992Z,13.80
2023-02-27T23:57:48.228Z,13.50
